createdAt,value
2019-02-28T00:01:46.287Z,6.60
2019-02-28T00:04:16.094Z,7.17
2019-02-28T00:06:47.016Z,7.43
2019-02-28T00:09:18.623Z,7.50
2019-02-28T00:11:59.325Z,6.70
2019-02-28T00:14:30.362Z,6.47
2019-02-28T00:17:02.773Z,6.73
2019-02-28T00:19:34.198Z,6.73
2019-02-28T00:22:05.116Z,7.63
2019-02-28T00:24:36.483Z,7.67
2019-02-28T00:27:07.147Z,7.27
2019-02-28T00:29:38.128Z,7.23
2019-02-28T00:32:09.945Z,6.70
2019-02-28T00:34:41.581Z,6.73
2019-02-28T00:37:16.649Z,7.63
2019-02-28T00:39:50.213Z,6.50
2019-02-28T00:42:21.254Z,7.63
2019-02-28T00:44:51.906Z,7.00
2019-02-28T00:47:23.606Z,7.07
2019-02-28T00:49:55.596Z,7.03
2019-02-28T00:52:28.156Z,7.07
2019-02-28T00:55:00.830Z,7.37
2019-02-28T00:57:31.888Z,8.13
2019-02-28T01:00:05.490Z,7.27
2019-02-28T01:02:53.523Z,6.63
2019-02-28T01:05:23.724Z,7.50
2019-02-28T01:07:55.221Z,7.13
2019-02-28T01:10:26.365Z,7.90
2019-02-28T01:12:57.808Z,8.30
2019-02-28T01:15:29.262Z,7.57
2019-02-28T01:18:01.572Z,7.27
2019-02-28T01:20:33.264Z,7.60
2019-02-28T01:23:04.263Z,6.90
2019-02-28T01:25:37.188Z,8.10
2019-02-28T01:28:13.025Z,7.53
2019-02-28T01:30:44.415Z,6.77
2019-02-28T01:33:15.904Z,7.27
2019-02-28T01:35:47.303Z,7.47
2019-02-28T01:38:18.988Z,7.47
2019-02-28T01:40:58.754Z,7.20
2019-02-28T01:43:29.777Z,7.63
2019-02-28T01:46:01.515Z,6.73
2019-02-28T01:48:32.843Z,7.97
2019-02-28T01:51:04.115Z,8.53
2019-02-28T01:53:36.515Z,8.43
2019-02-28T01:56:07.864Z,7.03
2019-02-28T01:58:38.941Z,7.87
2019-02-28T02:01:09.900Z,8.17
2019-02-28T03:01:56.122Z,10.77
2019-02-28T03:04:26.443Z,10.93
2019-02-28T03:07:02.092Z,10.63
2019-02-28T03:09:33.815Z,9.50
2019-02-28T03:12:06.083Z,9.43
2019-02-28T03:14:37.385Z,8.70
2019-02-28T03:17:11.558Z,9.23
2019-02-28T03:19:42.371Z,8.23
2019-02-28T03:22:14.112Z,7.80
2019-02-28T03:24:50.684Z,7.80
2019-02-28T03:27:20.004Z,7.70
2019-02-28T03:29:52.053Z,8.13
2019-02-28T03:32:23.320Z,7.37
2019-02-28T03:34:58.947Z,8.07
2019-02-28T03:37:32.852Z,7.37
2019-02-28T03:40:04.485Z,7.57
2019-02-28T03:42:34.873Z,8.03
2019-02-28T03:45:06.088Z,7.53
2019-02-28T03:47:37.739Z,8.60
2019-02-28T03:50:08.540Z,7.47
2019-02-28T03:52:43.838Z,7.77
2019-02-28T03:55:12.961Z,8.10
2019-02-28T03:57:44.201Z,8.63
2019-02-28T04:00:17.435Z,8.53
2019-02-28T04:02:58.806Z,7.57
2019-02-28T04:05:45.671Z,8.53
2019-02-28T04:08:17.935Z,7.53
2019-02-28T04:11:23.220Z,7.83
2019-02-28T04:13:56.065Z,8.47
2019-02-28T04:16:27.592Z,7.67
2019-02-28T04:18:58.557Z,7.63
2019-02-28T04:21:35.069Z,7.90
2019-02-28T04:24:12.689Z,8.50
2019-02-28T04:26:42.650Z,8.70
2019-02-28T04:29:13.992Z,8.07
2019-02-28T04:31:45.377Z,7.33
2019-02-28T04:34:17.109Z,8.43
2019-02-28T04:36:48.447Z,9.50
2019-02-28T04:39:22.819Z,8.90
2019-02-28T04:41:53.673Z,9.17
2019-02-28T04:44:35.947Z,8.40
2019-02-28T04:47:07.657Z,8.03
2019-02-28T04:49:38.379Z,9.20
2019-02-28T04:52:11.813Z,7.93
2019-02-28T04:54:42.569Z,9.80
2019-02-28T04:57:17.406Z,8.43
2019-02-28T04:59:49.024Z,8.60
2019-02-28T05:02:20.774Z,7.77
2019-02-28T05:04:52.303Z,8.13
2019-02-28T05:07:26.307Z,7.70
2019-02-28T05:09:56.717Z,7.73
2019-02-28T05:12:27.967Z,9.63
2019-02-28T05:15:02.167Z,7.73
2019-02-28T05:17:32.565Z,8.23
2019-02-28T05:20:03.292Z,8.20
2019-02-28T05:22:35.246Z,8.20
2019-02-28T05:25:09.561Z,7.87
2019-02-28T05:27:41.562Z,8.10
2019-02-28T05:30:18.126Z,9.17
2019-02-28T05:32:47.125Z,9.20
2019-02-28T05:35:18.124Z,8.90
2019-02-28T05:37:50.902Z,9.20
2019-02-28T05:40:22.339Z,9.50
2019-02-28T05:42:54.643Z,9.40
2019-02-28T05:45:26.417Z,9.13
2019-02-28T05:47:57.488Z,10.10
2019-02-28T05:50:28.474Z,8.83
2019-02-28T05:52:59.877Z,9.33
2019-02-28T05:55:32.493Z,9.33
2019-02-28T05:58:03.624Z,9.50
2019-02-28T06:00:37.045Z,9.33
2019-02-28T06:03:08.207Z,10.30
2019-02-28T06:05:39.110Z,9.33
2019-02-28T06:08:10.721Z,9.27
2019-02-28T06:10:42.393Z,9.47
2019-02-28T06:13:15.300Z,8.27
2019-02-28T06:15:47.352Z,9.03
2019-02-28T06:18:18.391Z,8.73
2019-02-28T06:20:51.429Z,8.77
2019-02-28T06:23:22.318Z,9.13
2019-02-28T06:25:55.770Z,9.70
2019-02-28T06:28:27.707Z,9.67
2019-02-28T06:31:00.883Z,10.50
2019-02-28T06:33:33.755Z,8.83
2019-02-28T06:36:05.420Z,8.43
2019-02-28T06:38:37.023Z,9.57
2019-02-28T06:41:08.737Z,10.93
2019-02-28T06:43:39.692Z,9.67
2019-02-28T06:46:11.436Z,10.37
2019-02-28T06:48:42.836Z,9.83
2019-02-28T06:51:16.730Z,10.93
2019-02-28T06:53:47.192Z,10.90
2019-02-28T06:56:21.929Z,10.90
2019-02-28T06:58:52.183Z,10.90
2019-02-28T07:01:23.894Z,9.60
2019-02-28T07:03:55.093Z,9.60
2019-02-28T07:06:26.683Z,9.67
2019-02-28T07:09:02.023Z,10.70
2019-02-28T07:11:32.827Z,10.00
2019-02-28T07:14:03.963Z,10.03
2019-02-28T07:16:37.637Z,9.37
2019-02-28T07:19:08.904Z,9.73
2019-02-28T07:21:43.926Z,10.43
2019-02-28T07:24:13.073Z,9.97
2019-02-28T07:26:44.566Z,10.20
2019-02-28T07:29:15.687Z,11.17
2019-02-28T07:31:46.743Z,11.00
2019-02-28T07:34:21.945Z,11.10
2019-02-28T07:36:51.578Z,12.57
2019-02-28T07:39:22.210Z,11.87
2019-02-28T07:41:53.258Z,12.87
2019-02-28T07:44:25.294Z,12.57
2019-02-28T07:46:56.824Z,11.83
2019-02-28T07:49:27.491Z,11.20
2019-02-28T07:51:58.850Z,10.17
2019-02-28T07:54:31.343Z,11.50
2019-02-28T07:57:03.282Z,11.77
2019-02-28T07:59:40.663Z,11.47
2019-02-28T08:02:07.748Z,12.63
2019-02-28T08:04:39.431Z,11.57
2019-02-28T08:07:11.403Z,11.50
2019-02-28T08:09:43.496Z,11.47
2019-02-28T08:12:14.568Z,12.13
2019-02-28T08:14:47.075Z,12.87
2019-02-28T08:17:18.375Z,12.63
2019-02-28T08:19:50.224Z,11.83
2019-02-28T08:22:24.220Z,11.90
2019-02-28T08:24:53.464Z,12.17
2019-02-28T08:27:25.447Z,12.10
2019-02-28T08:29:57.090Z,12.73
2019-02-28T08:32:28.089Z,12.40
2019-02-28T08:34:59.759Z,12.23
2019-02-28T08:37:31.216Z,11.80
2019-02-28T08:40:02.892Z,12.40
2019-02-28T08:42:38.690Z,12.30
2019-02-28T08:45:10.705Z,11.77
2019-02-28T08:47:41.434Z,12.33
2019-02-28T08:50:19.166Z,11.43
2019-02-28T08:52:52.238Z,12.10
2019-02-28T08:55:28.905Z,12.70
2019-02-28T08:58:03.935Z,13.17
2019-02-28T09:00:32.785Z,13.63
2019-02-28T09:03:02.592Z,12.77
2019-02-28T09:05:33.959Z,13.17
2019-02-28T09:08:05.003Z,12.97
2019-02-28T09:10:37.466Z,13.07
2019-02-28T09:13:09.030Z,12.20
2019-02-28T09:15:40.729Z,13.37
2019-02-28T09:18:12.426Z,13.70
2019-02-28T09:20:45.149Z,12.30
2019-02-28T09:23:16.265Z,13.50
2019-02-28T09:25:46.898Z,13.63
2019-02-28T09:28:20.874Z,12.70
2019-02-28T09:30:53.567Z,12.77
2019-02-28T09:33:24.571Z,13.17
2019-02-28T09:35:55.264Z,13.40
2019-02-28T09:38:26.313Z,12.63
2019-02-28T09:40:57.652Z,12.30
2019-02-28T09:43:29.327Z,12.63
2019-02-28T09:45:59.908Z,13.00
2019-02-28T09:48:33.944Z,12.97
2019-02-28T09:51:03.757Z,12.60
2019-02-28T09:53:34.720Z,13.30
2019-02-28T09:56:09.342Z,13.00
2019-02-28T09:58:39.484Z,13.30
2019-02-28T10:01:10.803Z,14.00
2019-02-28T10:03:41.488Z,12.67
2019-02-28T10:06:16.463Z,13.87
2019-02-28T10:08:48.015Z,15.13
2019-02-28T10:11:21.723Z,14.10
2019-02-28T10:13:53.095Z,12.23
2019-02-28T10:16:25.549Z,12.60
2019-02-28T10:18:56.161Z,11.77
2019-02-28T10:21:27.184Z,12.70
2019-02-28T10:23:59.000Z,13.07
2019-02-28T10:26:29.907Z,11.73
2019-02-28T10:29:01.286Z,11.83
2019-02-28T10:31:38.636Z,12.37
2019-02-28T10:34:10.220Z,11.30
2019-02-28T10:36:41.211Z,10.77
2019-02-28T10:39:12.660Z,10.67
2019-02-28T10:41:44.487Z,10.60
2019-02-28T10:44:16.155Z,11.53
2019-02-28T10:46:47.165Z,10.83
2019-02-28T10:49:21.129Z,11.33
2019-02-28T10:51:51.766Z,11.20
2019-02-28T10:54:22.859Z,11.80
2019-02-28T10:56:54.201Z,11.13
2019-02-28T10:59:25.903Z,11.03
2019-02-28T11:01:56.952Z,12.57
2019-02-28T11:04:30.179Z,10.33
2019-02-28T11:07:02.254Z,11.80
2019-02-28T11:09:34.786Z,12.37
2019-02-28T11:12:05.833Z,11.23
2019-02-28T11:14:38.805Z,10.80
2019-02-28T11:17:13.639Z,10.17
2019-02-28T11:19:43.144Z,11.47
2019-02-28T11:22:14.945Z,11.13
2019-02-28T11:24:48.197Z,11.13
2019-02-28T11:27:22.877Z,11.40
2019-02-28T11:29:52.206Z,11.80
2019-02-28T11:32:22.761Z,10.97
2019-02-28T11:34:54.836Z,11.10
2019-02-28T11:37:26.335Z,10.57
2019-02-28T11:39:57.687Z,11.27
2019-02-28T11:42:31.241Z,10.73
2019-02-28T11:45:03.286Z,9.80
2019-02-28T11:47:34.315Z,9.87
2019-02-28T11:50:07.665Z,10.27
2019-02-28T11:52:39.078Z,8.37
2019-02-28T11:55:11.326Z,10.50
2019-02-28T11:57:42.382Z,9.73
2019-02-28T12:00:22.367Z,9.17
2019-02-28T12:02:53.682Z,10.70
2019-02-28T12:05:25.857Z,9.60
2019-02-28T12:07:57.286Z,9.20
2019-02-28T12:10:28.416Z,8.77
2019-02-28T12:12:59.665Z,9.33
2019-02-28T12:15:31.057Z,9.80
2019-02-28T12:18:04.748Z,8.83
2019-02-28T12:20:36.094Z,9.33
2019-02-28T12:23:07.957Z,9.10
2019-02-28T12:25:39.492Z,9.37
2019-02-28T12:28:12.095Z,10.07
2019-02-28T12:30:43.626Z,8.03
2019-02-28T12:33:15.431Z,9.40
2019-02-28T12:35:47.442Z,8.90
2019-02-28T12:38:18.933Z,8.87
2019-02-28T12:40:50.716Z,8.33
2019-02-28T12:43:21.597Z,8.10
2019-02-28T12:45:53.619Z,10.17
2019-02-28T12:48:26.935Z,8.93
2019-02-28T12:50:58.071Z,8.33
2019-02-28T12:53:28.834Z,9.23
2019-02-28T12:56:00.131Z,8.27
2019-02-28T12:58:38.677Z,9.03
2019-02-28T13:01:04.254Z,8.80
2019-02-28T13:03:35.258Z,8.37
2019-02-28T13:06:07.220Z,10.07
2019-02-28T13:08:38.603Z,8.03
2019-02-28T13:11:11.550Z,8.57
2019-02-28T13:13:42.942Z,8.83
2019-02-28T13:16:17.434Z,10.63
2019-02-28T13:18:48.121Z,9.10
2019-02-28T13:21:31.112Z,8.53
2019-02-28T13:24:06.089Z,9.67
2019-02-28T13:26:35.121Z,8.60
2019-02-28T13:29:06.440Z,7.83
2019-02-28T13:31:37.958Z,9.73
2019-02-28T13:34:08.653Z,9.47
2019-02-28T13:36:39.695Z,9.57
2019-02-28T13:39:11.856Z,9.43
2019-02-28T13:41:43.289Z,9.17
2019-02-28T13:44:14.371Z,9.60
2019-02-28T13:46:45.702Z,9.90
2019-02-28T13:49:17.817Z,9.80
2019-02-28T13:51:49.819Z,9.37
2019-02-28T13:54:21.876Z,9.10
2019-02-28T13:56:53.291Z,9.77
2019-02-28T13:59:24.592Z,11.10
2019-02-28T14:01:55.611Z,9.37
2019-02-28T14:04:27.529Z,9.90
2019-02-28T14:06:59.029Z,9.53
2019-02-28T14:09:31.160Z,10.30
2019-02-28T14:12:01.958Z,10.90
2019-02-28T14:14:33.028Z,10.23
2019-02-28T14:17:04.036Z,10.07
2019-02-28T14:19:35.365Z,10.73
2019-02-28T14:22:08.576Z,10.50
2019-02-28T14:24:40.313Z,9.33
2019-02-28T14:27:11.977Z,9.60
2019-02-28T14:29:48.389Z,9.97
2019-02-28T14:32:42.474Z,9.73
2019-02-28T14:35:15.412Z,9.40
2019-02-28T14:37:47.050Z,10.47
2019-02-28T14:40:18.819Z,10.57
2019-02-28T14:42:50.143Z,9.70
2019-02-28T14:45:23.055Z,10.23
2019-02-28T14:47:57.266Z,9.47
2019-02-28T14:50:27.951Z,9.13
2019-02-28T14:52:58.739Z,10.13
2019-02-28T14:55:32.729Z,9.23
2019-02-28T14:58:03.754Z,10.07
2019-02-28T15:00:35.443Z,9.67
2019-02-28T15:03:06.441Z,9.30
2019-02-28T15:05:39.363Z,8.93
2019-02-28T15:08:15.153Z,8.77
2019-02-28T15:10:45.718Z,9.70
2019-02-28T15:13:17.823Z,9.03
2019-02-28T15:15:55.835Z,9.20
2019-02-28T15:18:27.169Z,9.43
2019-02-28T15:20:59.254Z,9.07
2019-02-28T15:23:34.142Z,8.70
2019-02-28T15:26:12.782Z,8.97
2019-02-28T15:28:48.589Z,7.80
2019-02-28T15:31:21.439Z,8.90
2019-02-28T15:34:07.282Z,8.30
2019-02-28T15:36:40.476Z,7.30
2019-02-28T15:39:12.551Z,7.90
2019-02-28T15:41:45.532Z,7.20
2019-02-28T15:44:16.544Z,6.47
2019-02-28T15:46:48.364Z,6.40
2019-02-28T15:49:19.923Z,5.53
2019-02-28T15:51:54.849Z,5.80
2019-02-28T15:54:26.926Z,5.77
2019-02-28T15:56:59.122Z,5.57
2019-02-28T15:59:31.638Z,5.30
2019-02-28T16:02:03.591Z,6.17
2019-02-28T16:04:37.041Z,6.17
2019-02-28T16:07:08.032Z,4.83
2019-02-28T16:09:43.354Z,5.67
2019-02-28T16:12:15.931Z,5.73
2019-02-28T16:14:49.716Z,5.83
2019-02-28T16:17:20.705Z,6.70
2019-02-28T16:19:53.196Z,6.33
2019-02-28T16:22:24.529Z,5.93
2019-02-28T16:24:56.644Z,6.63
2019-02-28T16:27:29.504Z,6.33
2019-02-28T16:30:11.643Z,5.90
2019-02-28T16:32:45.531Z,6.73
2019-02-28T16:35:17.037Z,6.30
2019-02-28T16:37:50.562Z,7.23
2019-02-28T16:40:27.342Z,5.67
2019-02-28T16:42:59.063Z,5.93
2019-02-28T16:45:48.479Z,6.20
2019-02-28T16:48:23.439Z,5.90
2019-02-28T16:50:56.788Z,6.97
2019-02-28T16:53:28.042Z,6.57
2019-02-28T16:55:59.458Z,7.07
2019-02-28T16:58:35.151Z,6.60
2019-02-28T17:01:28.503Z,7.33
2019-02-28T17:04:02.085Z,6.67
2019-02-28T17:06:35.618Z,6.77
2019-02-28T17:09:23.098Z,6.50
2019-02-28T17:12:10.649Z,6.93
2019-02-28T17:15:13.908Z,6.60
2019-02-28T17:17:56.642Z,7.20
2019-02-28T17:20:27.031Z,6.83
2019-02-28T17:22:58.588Z,6.90
2019-02-28T17:25:31.104Z,6.80
2019-02-28T17:28:29.972Z,7.03
2019-02-28T17:31:35.728Z,7.63
2019-02-28T17:34:07.751Z,7.47
2019-02-28T17:36:38.831Z,7.10
2019-02-28T17:39:14.805Z,8.07
2019-02-28T17:41:44.899Z,7.67
2019-02-28T17:44:57.124Z,8.30
2019-02-28T17:48:26.177Z,8.83
2019-02-28T17:51:33.691Z,8.10
2019-02-28T17:54:54.329Z,8.20
2019-02-28T17:58:19.349Z,8.90
2019-02-28T18:01:35.161Z,7.93
2019-02-28T18:05:18.661Z,8.37
2019-02-28T18:08:55.432Z,8.07
2019-02-28T18:12:01.334Z,9.00
2019-02-28T18:15:31.118Z,9.90
2019-02-28T18:19:18.270Z,9.67
2019-02-28T18:22:26.441Z,9.97
2019-02-28T18:25:32.624Z,9.17
2019-02-28T18:29:09.893Z,9.17
2019-02-28T18:31:42.014Z,8.73
2019-02-28T18:34:26.234Z,8.37
2019-02-28T18:36:58.103Z,8.77
2019-02-28T18:39:29.657Z,8.70
2019-02-28T18:42:00.778Z,10.13
2019-02-28T18:44:31.893Z,9.70
2019-02-28T18:47:04.396Z,9.40
2019-02-28T18:49:36.153Z,9.50
2019-02-28T18:52:07.043Z,8.80
2019-02-28T18:54:39.438Z,9.23
2019-02-28T18:57:12.154Z,8.20
2019-02-28T18:59:43.638Z,8.97
2019-02-28T19:02:14.676Z,9.10
2019-02-28T19:04:46.083Z,8.90
2019-02-28T19:07:18.402Z,9.33
2019-02-28T19:09:50.111Z,8.77
2019-02-28T19:12:21.977Z,8.27
2019-02-28T19:14:53.485Z,8.73
2019-02-28T19:17:24.610Z,9.67
2019-02-28T19:19:55.640Z,8.80
2019-02-28T19:22:27.015Z,9.00
2019-02-28T19:24:58.408Z,8.83
2019-02-28T19:27:29.815Z,8.70
2019-02-28T19:30:01.357Z,9.00
2019-02-28T19:32:33.857Z,8.30
2019-02-28T19:35:05.717Z,9.13
2019-02-28T19:37:37.772Z,8.30
2019-02-28T19:40:09.938Z,7.17
2019-02-28T19:42:41.703Z,7.27
2019-02-28T19:45:14.323Z,7.27
2019-02-28T19:47:47.419Z,6.83
2019-02-28T19:50:18.541Z,6.90
2019-02-28T19:52:49.273Z,7.53
2019-02-28T19:55:20.634Z,8.03
2019-02-28T19:57:52.023Z,7.07
2019-02-28T20:00:22.833Z,6.47
2019-02-28T20:02:54.515Z,5.63
2019-02-28T20:05:26.015Z,5.43
2019-02-28T20:07:57.106Z,5.10
2019-02-28T20:10:28.128Z,5.07
2019-02-28T20:12:58.835Z,4.37
2019-02-28T20:15:32.141Z,4.10
2019-02-28T20:18:03.932Z,4.27
2019-02-28T20:20:35.245Z,4.13
2019-02-28T20:23:06.880Z,4.43
2019-02-28T20:25:37.837Z,3.77
2019-02-28T20:28:08.776Z,4.43
2019-02-28T20:30:40.609Z,3.40
2019-02-28T20:33:11.935Z,3.57
2019-02-28T20:35:43.907Z,2.70
2019-02-28T20:39:01.450Z,3.50
2019-02-28T20:41:32.145Z,2.67
2019-02-28T20:44:03.791Z,3.07
2019-02-28T20:46:35.033Z,2.70
2019-02-28T20:49:06.784Z,2.83
2019-02-28T20:51:37.796Z,2.73
2019-02-28T20:54:09.844Z,2.30
2019-02-28T20:56:40.970Z,3.50
2019-02-28T20:59:13.156Z,3.10
2019-02-28T21:01:44.523Z,3.10
2019-02-28T21:04:16.242Z,3.10
2019-02-28T21:06:46.966Z,3.20
2019-02-28T21:09:20.451Z,3.43
2019-02-28T21:11:51.855Z,3.00
2019-02-28T21:14:23.808Z,3.13
2019-02-28T21:16:55.147Z,2.80
2019-02-28T21:19:26.209Z,3.10
2019-02-28T21:21:57.845Z,3.13
2019-02-28T21:24:29.196Z,3.10
2019-02-28T21:27:59.074Z,3.07
2019-02-28T21:30:30.369Z,3.10
2019-02-28T21:33:01.401Z,2.70
2019-02-28T21:35:32.852Z,3.50
2019-02-28T21:38:04.338Z,3.07
2019-02-28T21:40:35.680Z,2.90
2019-02-28T21:43:06.709Z,2.80
2019-02-28T21:45:37.773Z,3.10
2019-02-28T21:48:09.090Z,3.20
2019-02-28T21:50:47.502Z,3.07
2019-02-28T21:53:18.568Z,3.27
2019-02-28T21:55:49.618Z,3.20
2019-02-28T21:58:22.154Z,3.37
2019-02-28T22:00:53.114Z,3.03
2019-02-28T22:03:43.813Z,3.63
2019-02-28T22:06:16.300Z,3.50
2019-02-28T22:08:47.931Z,2.73
2019-02-28T22:11:19.432Z,4.13
2019-02-28T22:13:50.406Z,3.20
2019-02-28T22:16:21.467Z,2.97
2019-02-28T22:18:52.481Z,3.00
2019-02-28T22:21:23.911Z,2.90
2019-02-28T22:23:55.848Z,3.50
2019-02-28T22:26:31.744Z,3.10
2019-02-28T22:29:03.502Z,3.07
2019-02-28T22:31:52.631Z,3.03
2019-02-28T22:34:53.083Z,2.93
2019-02-28T22:37:25.567Z,3.20
2019-02-28T22:40:09.657Z,3.10
2019-02-28T22:42:42.233Z,2.73
2019-02-28T22:45:12.738Z,2.83
2019-02-28T22:47:44.111Z,3.20
2019-02-28T22:50:15.935Z,2.77
2019-02-28T22:52:47.319Z,2.17
2019-02-28T22:55:23.575Z,2.53
2019-02-28T22:57:54.694Z,2.27
2019-02-28T23:01:04.326Z,2.10
2019-02-28T23:03:48.953Z,2.70
2019-02-28T23:06:22.315Z,2.33
2019-02-28T23:08:53.650Z,2.73
2019-02-28T23:11:24.362Z,2.37
2019-02-28T23:13:56.045Z,2.50
2019-02-28T23:16:28.159Z,3.00
2019-02-28T23:19:01.200Z,2.63
2019-02-28T23:21:32.738Z,3.23
2019-02-28T23:24:04.332Z,10.57
2019-02-28T23:27:15.003Z,10.60
2019-02-28T23:29:55.472Z,6.80
2019-02-28T23:32:57.942Z,4.03
2019-02-28T23:35:37.097Z,1.83
2019-02-28T23:38:13.613Z,2.10
2019-02-28T23:40:50.711Z,2.70
2019-02-28T23:43:25.924Z,2.47
2019-02-28T23:46:01.259Z,2.10
2019-02-28T23:48:35.358Z,2.10
2019-02-28T23:51:06.847Z,2.10
2019-02-28T23:53:38.172Z,2.10
2019-02-28T23:56:10.003Z,2.07
2019-02-28T23:58:40.808Z,2.20
